createdAt,value
2022-12-11T00:02:36.834Z,-2.4
2022-12-11T00:05:36.853Z,-2.4
2022-12-11T00:08:36.863Z,-2.4
2022-12-11T00:11:36.898Z,-2.4
2022-12-11T00:14:36.882Z,-2.5
2022-12-11T00:17:36.889Z,-2.5
2022-12-11T00:20:36.904Z,-2.5
2022-12-11T00:23:36.918Z,-2.5
2022-12-11T00:26:36.928Z,-2.5
2022-12-11T00:29:36.956Z,-2.5
2022-12-11T00:32:37.806Z,-2.5
2022-12-11T00:35:36.954Z,-2.5
2022-12-11T00:38:36.958Z,-2.5
2022-12-11T00:41:36.974Z,-2.5
2022-12-11T00:44:36.983Z,-2.5
2022-12-11T00:47:37.017Z,-2.5
2022-12-11T00:50:37.002Z,-2.5
2022-12-11T00:53:37.014Z,-2.5
2022-12-11T00:56:37.024Z,-2.5
2022-12-11T00:59:37.034Z,-2.5
2022-12-11T01:02:37.040Z,-2.4
2022-12-11T01:05:37.068Z,-2.5
2022-12-11T01:08:38.769Z,-2.5
2022-12-11T01:11:37.065Z,-2.4
2022-12-11T01:14:37.071Z,-2.5
2022-12-11T01:17:37.083Z,-2.5
2022-12-11T01:20:37.089Z,-2.5
2022-12-11T01:23:37.218Z,-2.5
2022-12-11T01:26:37.109Z,-2.5
2022-12-11T01:29:37.118Z,-2.6
2022-12-11T01:32:37.132Z,-2.6
2022-12-11T01:35:37.140Z,-2.6
2022-12-11T01:38:37.152Z,-2.6
2022-12-11T01:41:37.166Z,-2.6
2022-12-11T01:44:37.197Z,-2.5
2022-12-11T01:47:37.185Z,-2.5
2022-12-11T01:50:37.190Z,-2.5
2022-12-11T01:53:37.204Z,-2.6
2022-12-11T01:56:37.211Z,-2.5
2022-12-11T01:59:37.223Z,-2.6
2022-12-11T02:02:37.287Z,-2.6
2022-12-11T02:05:37.238Z,-2.5
2022-12-11T02:08:37.246Z,-2.6
2022-12-11T02:11:37.258Z,-2.6
2022-12-11T02:14:37.292Z,-2.6
2022-12-11T02:17:37.278Z,-2.6
2022-12-11T02:20:37.305Z,-2.5
2022-12-11T02:23:37.301Z,-2.6
2022-12-11T02:26:37.307Z,-2.6
2022-12-11T02:29:37.315Z,-2.6
2022-12-11T02:32:37.323Z,-2.6
2022-12-11T02:35:37.333Z,-2.6
2022-12-11T02:38:37.366Z,-2.6
2022-12-11T02:41:37.351Z,-2.7
2022-12-11T02:44:37.365Z,-2.7
2022-12-11T02:47:37.371Z,-2.7
2022-12-11T02:50:37.382Z,-2.7
2022-12-11T02:53:37.393Z,-2.7
2022-12-11T02:56:37.426Z,-2.7
2022-12-11T02:59:37.409Z,-2.7
2022-12-11T03:02:37.478Z,-2.7
2022-12-11T03:05:37.425Z,-2.7
2022-12-11T03:08:37.437Z,-2.7
2022-12-11T03:11:37.472Z,-2.7
2022-12-11T03:14:37.473Z,-2.8
2022-12-11T03:17:37.474Z,-2.8
2022-12-11T03:20:37.458Z,-2.8
2022-12-11T03:23:37.465Z,-2.8
2022-12-11T03:26:37.469Z,-2.8
2022-12-11T03:29:37.476Z,-2.8
2022-12-11T03:32:37.508Z,-2.8
2022-12-11T03:35:37.485Z,-2.8
2022-12-11T03:38:37.496Z,-2.7
2022-12-11T03:41:37.497Z,-2.8
2022-12-11T03:44:37.506Z,-2.8
2022-12-11T03:47:37.510Z,-2.8
2022-12-11T03:50:37.629Z,-2.8
2022-12-11T03:53:37.520Z,-2.8
2022-12-11T03:56:37.525Z,-2.8
2022-12-11T03:59:37.531Z,-2.8
2022-12-11T04:02:37.541Z,-2.8
2022-12-11T04:05:37.547Z,-2.8
2022-12-11T04:08:37.579Z,-2.8
2022-12-11T04:11:37.557Z,-2.8
2022-12-11T04:14:37.559Z,-2.8
2022-12-11T04:17:37.620Z,-2.9
2022-12-11T04:20:37.562Z,-2.9
2022-12-11T04:23:37.568Z,-2.9
2022-12-11T04:26:37.597Z,-2.9
2022-12-11T04:29:37.578Z,-2.9
2022-12-11T04:32:37.660Z,-2.9
2022-12-11T04:35:37.580Z,-2.9
2022-12-11T04:38:37.591Z,-2.9
2022-12-11T04:41:37.596Z,-2.9
2022-12-11T04:44:37.620Z,-2.9
2022-12-11T04:47:37.851Z,-2.9
2022-12-11T04:50:37.612Z,-2.9
2022-12-11T04:53:37.617Z,-2.9
2022-12-11T04:56:37.623Z,-2.9
2022-12-11T04:59:37.632Z,-2.9
2022-12-11T05:02:37.688Z,-2.9
2022-12-11T05:05:37.637Z,-3
2022-12-11T05:08:37.637Z,-3
2022-12-11T05:11:37.639Z,-3
2022-12-11T05:14:37.648Z,-3
2022-12-11T05:17:37.647Z,-3
2022-12-11T05:20:37.675Z,-3
2022-12-11T05:23:37.659Z,-3
2022-12-11T05:26:37.663Z,-3
2022-12-11T05:29:37.669Z,-3
2022-12-11T05:32:37.672Z,-3
2022-12-11T05:35:37.674Z,-3
2022-12-11T05:38:37.705Z,-3.1
2022-12-11T05:41:37.691Z,-3.1
2022-12-11T05:44:37.696Z,-3.1
2022-12-11T05:47:37.704Z,-3.1
2022-12-11T05:50:37.706Z,-3.1
2022-12-11T05:53:37.746Z,-3.2
2022-12-11T05:56:37.759Z,-3.2
2022-12-11T05:59:37.739Z,-3.3
2022-12-11T06:02:37.855Z,-3.5
2022-12-11T06:05:37.780Z,-3.7
2022-12-11T06:08:37.777Z,-3.9
2022-12-11T06:11:37.779Z,-4.1
2022-12-11T06:14:37.802Z,-4.2
2022-12-11T06:17:37.783Z,-4.3
2022-12-11T06:20:37.783Z,-4.5
2022-12-11T06:23:37.785Z,-4.6
2022-12-11T06:26:37.784Z,-4.7
2022-12-11T06:29:37.789Z,-4.8
2022-12-11T06:32:37.812Z,-4.9
2022-12-11T06:35:41.868Z,-5
2022-12-11T06:38:37.789Z,-5.1
2022-12-11T06:41:37.789Z,-5.2
2022-12-11T06:44:37.791Z,-5.2
2022-12-11T06:47:37.792Z,-5.2
2022-12-11T06:50:37.825Z,-5.2
2022-12-11T06:53:37.799Z,-5.1
2022-12-11T06:56:37.795Z,-5
2022-12-11T06:59:37.796Z,-4.9
2022-12-11T07:02:37.833Z,-4.8
2022-12-11T07:05:37.801Z,-4.7
2022-12-11T07:08:37.823Z,-4.6
2022-12-11T07:11:37.804Z,-4.6
2022-12-11T07:14:37.803Z,-4.6
2022-12-11T07:17:37.804Z,-4.5
2022-12-11T07:20:37.806Z,-4.5
2022-12-11T07:23:37.809Z,-4.5
2022-12-11T07:26:37.842Z,-4.5
2022-12-11T07:29:37.810Z,-4.4
2022-12-11T07:32:37.876Z,-4.4
2022-12-11T07:35:37.813Z,-4.3
2022-12-11T07:38:37.812Z,-4.3
2022-12-11T07:41:37.820Z,-4.3
2022-12-11T07:44:37.848Z,-4.4
2022-12-11T07:47:37.826Z,-4.5
2022-12-11T07:50:39.854Z,-4.6
2022-12-11T07:53:37.837Z,-4.7
2022-12-11T07:56:37.839Z,-4.7
2022-12-11T07:59:37.829Z,-4.8
2022-12-11T08:02:37.930Z,-4.9
2022-12-11T08:05:37.839Z,-4.9
2022-12-11T08:08:37.849Z,-4.9
2022-12-11T08:11:37.845Z,-4.8
2022-12-11T08:14:37.849Z,-4.7
2022-12-11T08:17:40.103Z,-4.5
2022-12-11T08:20:37.876Z,-4.3
2022-12-11T08:23:37.853Z,-4.1
2022-12-11T08:26:37.854Z,-3.9
2022-12-11T08:29:37.858Z,-3.9
2022-12-11T08:32:37.870Z,-3.8
2022-12-11T08:35:37.868Z,-3.6
2022-12-11T08:38:37.892Z,-3.3
2022-12-11T08:41:37.877Z,-2.8
2022-12-11T08:44:37.882Z,-2.3
2022-12-11T08:47:37.885Z,-2
2022-12-11T08:50:37.886Z,-1.9
2022-12-11T08:53:37.889Z,-1.6
2022-12-11T08:56:37.919Z,-1.3
2022-12-11T08:59:37.897Z,-1
2022-12-11T09:02:37.950Z,-0.7
2022-12-11T09:05:37.915Z,-0.3
2022-12-11T09:08:37.910Z,-0.1
2022-12-11T09:11:37.920Z,0
2022-12-11T09:14:37.944Z,0.2
2022-12-11T09:17:37.931Z,0.4
2022-12-11T09:20:37.934Z,0.5
2022-12-11T09:23:37.935Z,0.5
2022-12-11T09:26:37.952Z,0.6
2022-12-11T09:29:37.946Z,0.7
2022-12-11T09:32:37.981Z,0.7
2022-12-11T09:35:37.963Z,0.8
2022-12-11T09:38:37.995Z,0.7
2022-12-11T09:41:37.983Z,0.8
2022-12-11T09:44:37.984Z,1
2022-12-11T09:47:37.994Z,1.2
2022-12-11T09:50:38.021Z,1.2
2022-12-11T09:53:38.007Z,1.2
2022-12-11T09:56:38.011Z,1.2
2022-12-11T09:59:38.024Z,1.3
2022-12-11T10:02:38.087Z,1.4
2022-12-11T10:05:38.039Z,1.4
2022-12-11T10:08:38.068Z,1.3
2022-12-11T10:11:38.054Z,1.4
2022-12-11T10:14:38.077Z,1.6
2022-12-11T10:17:38.064Z,1.7
2022-12-11T10:20:38.071Z,1.7
2022-12-11T10:23:38.085Z,1.7
2022-12-11T10:26:38.112Z,1.8
2022-12-11T10:29:38.096Z,1.7
2022-12-11T10:32:38.106Z,1.6
2022-12-11T10:35:38.109Z,1.5
2022-12-11T10:38:38.116Z,1.3
2022-12-11T10:41:38.119Z,1.1
2022-12-11T10:44:38.157Z,1.2
2022-12-11T10:47:38.135Z,1.1
2022-12-11T10:50:38.140Z,1.1
2022-12-11T10:53:38.151Z,1.1
2022-12-11T10:56:38.146Z,1.2
2022-12-11T10:59:38.155Z,1.3
2022-12-11T11:02:38.225Z,1.4
2022-12-11T11:05:38.159Z,1.4
2022-12-11T11:08:38.167Z,1.1
2022-12-11T11:11:38.170Z,1
2022-12-11T11:14:38.177Z,1
2022-12-11T11:17:43.779Z,0.9
2022-12-11T11:20:38.213Z,0.8
2022-12-11T11:23:42.756Z,0.8
2022-12-11T11:27:11.472Z,0.8
2022-12-11T11:29:38.202Z,0.8
2022-12-11T11:32:38.204Z,0.6
2022-12-11T11:35:39.150Z,0.4
2022-12-11T11:38:38.300Z,0.4
2022-12-11T11:41:38.223Z,0.4
2022-12-11T11:44:38.228Z,0.3
2022-12-11T11:47:38.234Z,0.2
2022-12-11T11:50:38.234Z,0.2
2022-12-11T11:53:38.243Z,0.1
2022-12-11T11:56:38.266Z,0.1
2022-12-11T11:59:38.246Z,-0.1
2022-12-11T12:02:38.270Z,-0.1
2022-12-11T12:05:38.247Z,-0.2
2022-12-11T12:08:38.257Z,-0.3
2022-12-11T12:11:38.259Z,-0.5
2022-12-11T12:14:53.698Z,-0.6
2022-12-11T12:17:38.262Z,-0.6
2022-12-11T12:20:38.278Z,-0.7
2022-12-11T12:23:38.283Z,-0.8
2022-12-11T12:26:38.282Z,-0.8
2022-12-11T12:29:38.275Z,-0.9
2022-12-11T12:32:38.307Z,-0.9
2022-12-11T12:35:38.286Z,-1
2022-12-11T12:38:38.287Z,-0.9
2022-12-11T12:41:38.295Z,-1
2022-12-11T12:44:38.292Z,-1
2022-12-11T12:47:38.295Z,-1
2022-12-11T12:50:38.332Z,-1.1
2022-12-11T12:53:38.299Z,-1.1
2022-12-11T12:56:38.302Z,-1
2022-12-11T12:59:38.307Z,-0.9
2022-12-11T13:02:38.301Z,-0.9
2022-12-11T13:05:38.310Z,-0.9
2022-12-11T13:08:38.397Z,-1
2022-12-11T13:11:38.324Z,-1.1
2022-12-11T13:14:38.333Z,-1.1
2022-12-11T13:17:38.334Z,-1
2022-12-11T13:20:38.347Z,-0.7
2022-12-11T13:23:38.345Z,-0.4
2022-12-11T13:26:38.373Z,0
2022-12-11T13:29:38.362Z,0.2
2022-12-11T13:32:38.366Z,0.4
2022-12-11T13:35:38.369Z,0.4
2022-12-11T13:38:38.376Z,0.2
2022-12-11T13:41:38.384Z,0
2022-12-11T13:44:38.420Z,-0.1
2022-12-11T13:47:38.393Z,-0.1
2022-12-11T13:50:38.395Z,-0.2
2022-12-11T13:53:38.407Z,-0.2
2022-12-11T13:56:38.419Z,-0.3
2022-12-11T13:59:38.420Z,-0.3
2022-12-11T14:02:38.517Z,-0.3
2022-12-11T14:05:38.431Z,-0.3
2022-12-11T14:08:38.458Z,-0.3
2022-12-11T14:11:38.449Z,-0.4
2022-12-11T14:14:38.454Z,-0.5
2022-12-11T14:17:38.464Z,-0.5
2022-12-11T14:20:38.498Z,-0.5
2022-12-11T14:23:38.476Z,-0.6
2022-12-11T14:26:38.485Z,-0.6
2022-12-11T14:29:38.486Z,-0.6
2022-12-11T14:32:38.491Z,-0.7
2022-12-11T14:35:39.245Z,-0.7
2022-12-11T14:38:38.529Z,-0.7
2022-12-11T14:41:38.513Z,-0.8
2022-12-11T14:44:38.515Z,-0.8
2022-12-11T14:47:38.522Z,-0.8
2022-12-11T14:50:38.533Z,-0.9
2022-12-11T14:53:38.534Z,-0.9
2022-12-11T14:56:38.560Z,-0.9
2022-12-11T14:59:38.544Z,-1
2022-12-11T15:02:38.613Z,-1
2022-12-11T15:05:40.917Z,-1
2022-12-11T15:08:38.559Z,-1.1
2022-12-11T15:11:38.558Z,-1.1
2022-12-11T15:14:38.582Z,-1.1
2022-12-11T15:17:38.568Z,-1.1
2022-12-11T15:20:38.568Z,-1.1
2022-12-11T15:23:38.574Z,-1.1
2022-12-11T15:26:38.574Z,-1.1
2022-12-11T15:29:38.581Z,-1.2
2022-12-11T15:32:38.608Z,-1.2
2022-12-11T15:35:38.590Z,-1.3
2022-12-11T15:38:38.597Z,-1.3
2022-12-11T15:41:38.602Z,-1.4
2022-12-11T15:44:38.606Z,-1.4
2022-12-11T15:47:38.614Z,-1.5
2022-12-11T15:50:38.642Z,-1.5
2022-12-11T15:53:38.624Z,-1.5
2022-12-11T15:56:38.626Z,-1.6
2022-12-11T15:59:38.633Z,-1.7
2022-12-11T16:02:38.657Z,-1.8
2022-12-11T16:05:38.641Z,-1.8
2022-12-11T16:08:38.728Z,-1.9
2022-12-11T16:11:38.645Z,-1.9
2022-12-11T16:14:38.652Z,-1.9
2022-12-11T16:17:38.750Z,-1.9
2022-12-11T16:20:38.656Z,-2
2022-12-11T16:23:38.671Z,-1.9
2022-12-11T16:26:38.739Z,-2
2022-12-11T16:29:38.671Z,-2
2022-12-11T16:32:38.671Z,-2
2022-12-11T16:35:38.675Z,-2
2022-12-11T16:38:38.680Z,-2
2022-12-11T16:41:38.686Z,-2
2022-12-11T16:44:43.800Z,-2
2022-12-11T16:47:38.720Z,-2.1
2022-12-11T16:50:38.705Z,-2.1
2022-12-11T16:53:38.705Z,-2.1
2022-12-11T16:56:38.709Z,-2.1
2022-12-11T16:59:38.721Z,-2.1
2022-12-11T17:02:38.769Z,-2.1
2022-12-11T17:05:38.739Z,-2.1
2022-12-11T17:08:38.751Z,-2.1
2022-12-11T17:11:38.727Z,-2.1
2022-12-11T17:14:38.732Z,-2.1
2022-12-11T17:17:38.739Z,-2.1
2022-12-11T17:20:38.746Z,-2.1
2022-12-11T17:23:38.792Z,-2.1
2022-12-11T17:26:38.765Z,-2.1
2022-12-11T17:29:38.761Z,-2.1
2022-12-11T17:32:38.775Z,-2.1
2022-12-11T17:35:38.775Z,-2.1
2022-12-11T17:38:38.778Z,-2.2
2022-12-11T17:41:38.804Z,-2.2
2022-12-11T17:44:38.791Z,-2.3
2022-12-11T17:47:38.789Z,-2.3
2022-12-11T17:50:38.789Z,-2.3
2022-12-11T17:53:38.793Z,-2.4
2022-12-11T17:56:38.801Z,-2.4
2022-12-11T17:59:38.829Z,-2.4
2022-12-11T18:02:38.845Z,-2.4
2022-12-11T18:05:38.818Z,-2.4
2022-12-11T18:08:38.864Z,-2.4
2022-12-11T18:11:38.829Z,-2.4
2022-12-11T18:14:38.829Z,-2.5
2022-12-11T18:17:38.840Z,-2.5
2022-12-11T18:20:38.869Z,-2.6
2022-12-11T18:23:38.847Z,-2.6
2022-12-11T18:26:38.854Z,-2.7
2022-12-11T18:29:38.853Z,-2.7
2022-12-11T18:32:38.881Z,-2.8
2022-12-11T18:35:38.882Z,-2.8
2022-12-11T18:38:38.914Z,-2.9
2022-12-11T18:41:38.888Z,-3
2022-12-11T18:44:38.891Z,-3.1
2022-12-11T18:47:38.896Z,-3.2
2022-12-11T18:50:38.893Z,-3.3
2022-12-11T18:53:38.899Z,-3.3
2022-12-11T18:56:38.927Z,-3.4
2022-12-11T18:59:38.902Z,-3.4
2022-12-11T19:02:38.909Z,-3.5
2022-12-11T19:05:38.911Z,-3.5
2022-12-11T19:08:38.917Z,-3.6
2022-12-11T19:11:38.919Z,-3.7
2022-12-11T19:14:38.948Z,-3.7
2022-12-11T19:17:38.927Z,-3.8
2022-12-11T19:21:03.041Z,-3.9
2022-12-11T19:23:38.941Z,-3.9
2022-12-11T19:26:38.936Z,-3.9
2022-12-11T19:29:38.944Z,-4
2022-12-11T19:32:38.971Z,-4.1
2022-12-11T19:35:38.956Z,-4.1
2022-12-11T19:38:38.958Z,-4.2
2022-12-11T19:41:38.962Z,-4.2
2022-12-11T19:44:38.969Z,-4.3
2022-12-11T19:47:38.994Z,-4.4
2022-12-11T19:50:38.979Z,-4.5
2022-12-11T19:53:39.008Z,-4.5
2022-12-11T19:56:38.984Z,-4.6
2022-12-11T19:59:38.994Z,-4.6
2022-12-11T20:02:39.000Z,-4.5
2022-12-11T20:05:39.000Z,-4.5
2022-12-11T20:08:46.409Z,-4.6
2022-12-11T20:11:39.040Z,-4.6
2022-12-11T20:14:39.040Z,-4.7
2022-12-11T20:17:39.073Z,-4.8
2022-12-11T20:20:39.023Z,-4.7
2022-12-11T20:23:39.032Z,-4.8
2022-12-11T20:26:39.041Z,-5
2022-12-11T20:29:39.103Z,-5
2022-12-11T20:32:39.049Z,-5.1
2022-12-11T20:35:39.054Z,-5.1
2022-12-11T20:38:39.057Z,-5.1
2022-12-11T20:41:39.063Z,-5.2
2022-12-11T20:44:41.657Z,-5.2
2022-12-11T20:47:39.099Z,-5
2022-12-11T20:50:39.084Z,-5.1
2022-12-11T20:53:39.079Z,-5.1
2022-12-11T20:56:39.090Z,-5.1
2022-12-11T20:59:39.111Z,-5.1
2022-12-11T21:02:39.104Z,-5.1
2022-12-11T21:05:39.126Z,-5.1
2022-12-11T21:08:39.108Z,-5.1
2022-12-11T21:11:39.116Z,-5
2022-12-11T21:14:39.129Z,-5.1
2022-12-11T21:17:39.126Z,-5.1
2022-12-11T21:20:39.134Z,-5.2
2022-12-11T21:23:39.134Z,-5.2
2022-12-11T21:26:39.146Z,-5.2
2022-12-11T21:29:39.162Z,-5.1
2022-12-11T21:32:39.177Z,-5.1
2022-12-11T21:35:39.197Z,-5
2022-12-11T21:38:39.157Z,-5
2022-12-11T21:41:39.160Z,-5.1
2022-12-11T21:47:39.175Z,-5.2
2022-12-11T21:50:39.198Z,-5.2
2022-12-11T21:53:39.180Z,-5.1
2022-12-11T21:56:39.188Z,-5.1
2022-12-11T21:59:39.200Z,-5
2022-12-11T22:02:41.184Z,-4.9
2022-12-11T22:05:39.193Z,-4.8
2022-12-11T22:08:39.221Z,-4.8
2022-12-11T22:11:39.203Z,-4.7
2022-12-11T22:14:39.217Z,-4.6
2022-12-11T22:17:39.208Z,-4.6
2022-12-11T22:20:39.219Z,-4.6
2022-12-11T22:23:39.214Z,-4.6
2022-12-11T22:26:45.229Z,-4.5
2022-12-11T22:29:39.268Z,-4.5
2022-12-11T22:32:39.230Z,-4.4
2022-12-11T22:35:39.238Z,-4.5
2022-12-11T22:38:39.246Z,-4.5
2022-12-11T22:41:39.252Z,-4.6
2022-12-11T22:44:39.264Z,-4.6
2022-12-11T22:47:39.287Z,-4.6
2022-12-11T22:50:39.264Z,-4.6
2022-12-11T22:53:39.262Z,-4.5
2022-12-11T22:56:39.270Z,-4.5
2022-12-11T22:59:39.282Z,-4.5
2022-12-11T23:02:39.338Z,-4.5
2022-12-11T23:05:39.310Z,-4.5
2022-12-11T23:08:39.342Z,-4.5
2022-12-11T23:11:39.300Z,-4.4
2022-12-11T23:14:39.315Z,-4.4
2022-12-11T23:17:39.307Z,-4.4
2022-12-11T23:20:39.304Z,-4.4
2022-12-11T23:23:39.343Z,-4.4
2022-12-11T23:26:39.321Z,-4.4
2022-12-11T23:29:39.340Z,-4.4
2022-12-11T23:32:39.325Z,-4.3
2022-12-11T23:35:39.332Z,-4.2
2022-12-11T23:38:39.342Z,-4.2
2022-12-11T23:41:39.365Z,-4.1
2022-12-11T23:44:39.348Z,-4.1
2022-12-11T23:47:39.350Z,-4
2022-12-11T23:50:39.360Z,-4
2022-12-11T23:53:39.359Z,-3.9
2022-12-11T23:56:39.362Z,-3.9
2022-12-11T23:59:39.377Z,-3.8
